createdAt,value
2022-11-28T00:00:06.525Z,1.00
2022-11-28T00:02:36.442Z,1.00
2022-11-28T00:05:06.605Z,1.00
2022-11-28T00:07:36.461Z,1.00
2022-11-28T00:10:10.979Z,1.00
2022-11-28T00:12:40.851Z,1.00
2022-11-28T00:15:13.764Z,1.00
2022-11-28T00:17:43.596Z,1.00
2022-11-28T00:20:13.954Z,1.00
2022-11-28T00:22:43.838Z,1.00
2022-11-28T00:25:16.332Z,1.00
2022-11-28T00:27:46.169Z,1.00
2022-11-28T00:30:16.456Z,1.00
2022-11-28T00:32:46.278Z,1.00
2022-11-28T00:35:16.080Z,1.00
2022-11-28T00:37:45.946Z,1.00
2022-11-28T00:40:18.560Z,1.00
2022-11-28T00:42:48.368Z,1.00
2022-11-28T00:45:18.204Z,1.00
2022-11-28T00:47:49.209Z,1.00
2022-11-28T00:50:19.265Z,1.00
2022-11-28T00:52:49.152Z,1.00
2022-11-28T00:55:21.739Z,1.00
2022-11-28T00:57:51.565Z,1.00
2022-11-28T01:00:22.510Z,1.00
2022-11-28T01:02:52.352Z,1.00
2022-11-28T01:05:22.305Z,1.00
2022-11-28T01:07:52.176Z,1.00
2022-11-28T01:10:24.746Z,1.00
2022-11-28T01:12:54.571Z,1.00
2022-11-28T01:15:24.443Z,1.00
2022-11-28T01:17:54.235Z,1.00
2022-11-28T01:20:24.120Z,1.00
2022-11-28T01:22:53.908Z,1.00
2022-11-28T01:25:26.493Z,1.00
2022-11-28T01:27:56.389Z,1.00
2022-11-28T01:30:26.196Z,1.00
2022-11-28T01:32:56.099Z,1.00
2022-11-28T01:35:25.857Z,1.00
2022-11-28T01:37:56.384Z,1.00
2022-11-28T01:40:28.803Z,1.00
2022-11-28T01:42:58.693Z,1.00
2022-11-28T01:45:31.496Z,1.00
2022-11-28T01:48:06.245Z,1.00
2022-11-28T01:50:37.935Z,1.00
2022-11-28T01:53:11.254Z,1.00
2022-11-28T01:55:49.649Z,1.00
2022-11-28T01:58:19.749Z,1.00
2022-11-28T02:00:49.941Z,1.00
2022-11-28T02:03:24.380Z,1.00
2022-11-28T02:05:55.648Z,1.00
2022-11-28T02:08:28.048Z,1.00
2022-11-28T02:11:23.390Z,1.00
2022-11-28T02:14:01.096Z,1.00
2022-11-28T02:16:48.804Z,1.00
2022-11-28T02:19:40.893Z,1.00
2022-11-28T02:22:19.576Z,1.00
2022-11-28T02:25:14.474Z,1.00
2022-11-28T02:28:09.185Z,1.00
2022-11-28T02:30:52.487Z,1.00
2022-11-28T02:33:30.619Z,1.00
2022-11-28T02:36:09.382Z,1.00
2022-11-28T02:38:49.756Z,1.00
2022-11-28T02:41:25.718Z,1.00
2022-11-28T02:44:04.355Z,1.00
2022-11-28T02:46:42.015Z,1.00
2022-11-28T02:49:19.606Z,1.00
2022-11-28T02:51:53.201Z,1.00
2022-11-28T02:54:24.919Z,1.00
2022-11-28T02:56:56.993Z,1.00
2022-11-28T02:59:35.593Z,1.00
2022-11-28T03:02:06.453Z,1.00
2022-11-28T03:04:47.967Z,1.00
2022-11-28T03:07:30.469Z,1.00
2022-11-28T03:10:10.692Z,1.00
2022-11-28T03:12:54.133Z,1.00
2022-11-28T03:15:27.052Z,1.00
2022-11-28T03:18:05.300Z,1.00
2022-11-28T03:20:46.467Z,1.00
2022-11-28T03:23:19.354Z,1.00
2022-11-28T03:26:00.541Z,1.00
2022-11-28T03:28:42.052Z,1.00
2022-11-28T03:31:17.083Z,1.00
2022-11-28T03:33:51.659Z,1.00
2022-11-28T03:36:26.392Z,1.00
2022-11-28T03:39:01.849Z,1.00
2022-11-28T03:41:39.022Z,1.00
2022-11-28T03:44:14.113Z,1.00
2022-11-28T03:46:48.505Z,1.00
2022-11-28T03:49:24.264Z,1.00
2022-11-28T03:52:00.364Z,1.00
2022-11-28T03:54:37.428Z,1.00
2022-11-28T03:57:15.851Z,1.50
2022-11-28T03:59:48.373Z,2.30
2022-11-28T04:02:25.072Z,2.20
2022-11-28T04:05:01.015Z,1.60
2022-11-28T04:07:41.311Z,1.50
2022-11-28T04:10:18.200Z,1.00
2022-11-28T04:12:55.570Z,1.50
2022-11-28T04:15:32.667Z,1.50
2022-11-28T04:18:09.916Z,1.50
2022-11-28T04:20:44.605Z,1.50
2022-11-28T04:23:20.956Z,1.50
2022-11-28T04:25:56.386Z,1.50
2022-11-28T04:28:28.924Z,2.00
2022-11-28T04:31:01.472Z,3.20
2022-11-28T04:33:35.741Z,3.00
2022-11-28T04:36:07.725Z,2.40
2022-11-28T04:38:41.572Z,2.80
2022-11-28T04:41:16.764Z,3.20
2022-11-28T04:43:51.383Z,3.50
2022-11-28T04:46:25.192Z,3.30
2022-11-28T04:48:55.444Z,4.10
2022-11-28T04:51:30.177Z,3.50
2022-11-28T04:54:05.524Z,2.60
2022-11-28T04:56:42.793Z,2.50
2022-11-28T04:59:14.952Z,3.10
2022-11-28T05:01:48.369Z,2.80
2022-11-28T05:04:19.146Z,2.50
2022-11-28T05:06:48.919Z,1.10
2022-11-28T05:09:21.295Z,1.00
2022-11-28T05:11:51.064Z,1.00
2022-11-28T05:14:20.864Z,1.00
2022-11-28T05:16:50.808Z,1.00
2022-11-28T05:19:20.814Z,1.00
2022-11-28T05:21:53.143Z,1.00
2022-11-28T05:24:30.767Z,1.00
2022-11-28T05:27:02.051Z,1.00
2022-11-28T05:29:32.007Z,1.00
2022-11-28T05:32:01.944Z,1.00
2022-11-28T05:34:31.955Z,1.00
2022-11-28T05:37:01.690Z,1.40
2022-11-28T05:39:34.424Z,1.30
2022-11-28T05:42:04.228Z,1.40
2022-11-28T05:44:34.016Z,1.70
2022-11-28T05:47:06.448Z,1.40
2022-11-28T05:49:36.230Z,1.70
2022-11-28T05:52:06.178Z,1.30
2022-11-28T05:54:38.615Z,1.40
2022-11-28T05:57:09.139Z,1.40
2022-11-28T05:59:39.133Z,1.60
2022-11-28T06:02:09.064Z,1.40
2022-11-28T06:04:41.928Z,2.40
2022-11-28T06:07:11.877Z,2.20
2022-11-28T06:09:44.453Z,3.10
2022-11-28T06:12:14.476Z,3.00
2022-11-28T06:14:44.222Z,2.70
2022-11-28T06:17:13.971Z,2.90
2022-11-28T06:19:43.948Z,3.10
2022-11-28T06:22:14.076Z,2.80
2022-11-28T06:24:46.508Z,2.90
2022-11-28T06:27:16.503Z,2.90
2022-11-28T06:29:46.319Z,3.70
2022-11-28T06:32:21.732Z,3.70
2022-11-28T06:34:51.932Z,4.00
2022-11-28T06:37:21.747Z,3.70
2022-11-28T06:39:54.112Z,4.50
2022-11-28T06:42:23.963Z,5.10
2022-11-28T06:44:56.440Z,4.30
2022-11-28T06:47:26.293Z,4.80
2022-11-28T06:49:56.125Z,3.40
2022-11-28T06:52:26.071Z,3.30
2022-11-28T06:54:58.459Z,3.50
2022-11-28T06:57:28.591Z,3.20
2022-11-28T06:59:58.340Z,3.20
2022-11-28T07:02:28.217Z,3.80
2022-11-28T07:04:58.128Z,2.80
2022-11-28T07:07:28.070Z,2.90
2022-11-28T07:10:00.423Z,2.20
2022-11-28T07:12:30.220Z,1.60
2022-11-28T07:15:00.072Z,1.70
2022-11-28T07:17:30.220Z,2.30
2022-11-28T07:20:00.005Z,2.50
2022-11-28T07:22:29.910Z,1.20
2022-11-28T07:25:02.343Z,1.00
2022-11-28T07:27:32.196Z,1.60
2022-11-28T07:30:02.061Z,1.00
2022-11-28T07:32:33.564Z,1.00
2022-11-28T07:35:04.617Z,1.00
2022-11-28T07:37:34.445Z,1.00
2022-11-28T07:40:08.312Z,1.00
2022-11-28T07:42:38.153Z,1.70
2022-11-28T07:45:09.416Z,1.70
2022-11-28T07:47:39.239Z,1.70
2022-11-28T07:50:10.551Z,1.70
2022-11-28T07:52:40.381Z,2.20
2022-11-28T07:55:13.091Z,1.80
2022-11-28T07:57:42.936Z,1.70
2022-11-28T08:00:13.810Z,1.00
2022-11-28T08:02:43.618Z,1.30
2022-11-28T08:05:15.382Z,1.00
2022-11-28T08:07:45.301Z,1.00
2022-11-28T08:10:18.060Z,1.00
2022-11-28T08:12:47.953Z,1.00
2022-11-28T08:15:17.760Z,1.00
2022-11-28T08:17:47.594Z,1.00
2022-11-28T08:20:17.372Z,1.00
2022-11-28T08:22:47.193Z,1.00
2022-11-28T08:25:19.668Z,1.00
2022-11-28T08:27:49.414Z,1.00
2022-11-28T08:30:19.617Z,1.00
2022-11-28T08:32:49.935Z,1.00
2022-11-28T08:35:19.960Z,1.00
2022-11-28T08:37:49.817Z,1.00
2022-11-28T08:40:22.592Z,1.00
2022-11-28T08:42:52.499Z,1.00
2022-11-28T08:45:22.427Z,1.00
2022-11-28T08:47:52.559Z,1.00
2022-11-28T08:50:22.553Z,1.00
2022-11-28T08:52:52.757Z,1.00
2022-11-28T08:55:32.344Z,1.00
2022-11-28T08:58:02.663Z,1.00
2022-11-28T09:00:32.468Z,1.00
2022-11-28T09:03:02.396Z,1.00
2022-11-28T09:05:32.782Z,1.00
2022-11-28T09:08:02.632Z,1.00
2022-11-28T09:10:39.158Z,1.00
2022-11-28T09:13:09.884Z,1.00
2022-11-28T09:15:43.406Z,1.00
2022-11-28T09:18:15.027Z,1.00
2022-11-28T09:20:45.200Z,1.00
2022-11-28T09:23:14.984Z,1.00
2022-11-28T09:25:49.347Z,1.00
2022-11-28T09:28:19.100Z,1.00
2022-11-28T09:30:57.414Z,1.00
2022-11-28T09:33:27.539Z,1.00
2022-11-28T09:35:58.362Z,1.00
2022-11-28T09:38:28.546Z,1.00
2022-11-28T09:41:00.928Z,1.00
2022-11-28T09:43:34.347Z,1.00
2022-11-28T09:46:10.994Z,1.00
2022-11-28T09:48:46.110Z,1.00
2022-11-28T09:51:24.483Z,1.00
2022-11-28T09:54:05.019Z,1.00
2022-11-28T09:56:38.062Z,1.00
2022-11-28T09:59:15.996Z,1.00
2022-11-28T10:01:52.843Z,1.00
2022-11-28T10:04:31.609Z,1.00
2022-11-28T10:07:06.483Z,1.00
2022-11-28T10:09:50.784Z,1.00
2022-11-28T10:12:33.956Z,1.00
2022-11-28T10:15:18.384Z,1.00
2022-11-28T10:17:56.171Z,1.00
2022-11-28T10:20:29.796Z,1.00
2022-11-28T10:23:03.607Z,1.00
2022-11-28T10:25:37.736Z,1.00
2022-11-28T10:28:15.635Z,1.00
2022-11-28T10:30:50.653Z,1.00
2022-11-28T10:33:27.988Z,1.00
2022-11-28T10:35:59.426Z,1.00
2022-11-28T10:38:31.319Z,1.00
2022-11-28T10:41:07.520Z,1.00
2022-11-28T10:43:50.225Z,1.00
2022-11-28T10:46:44.365Z,1.00
2022-11-28T10:49:29.289Z,1.00
2022-11-28T10:52:03.277Z,1.00
2022-11-28T10:54:53.564Z,1.00
2022-11-28T10:57:26.736Z,1.00
2022-11-28T11:00:14.940Z,1.00
2022-11-28T11:02:48.905Z,1.00
2022-11-28T11:05:21.828Z,1.00
2022-11-28T11:07:54.858Z,1.00
2022-11-28T11:10:29.394Z,1.00
2022-11-28T11:13:00.594Z,1.00
2022-11-28T11:15:36.238Z,1.00
2022-11-28T11:18:22.227Z,1.00
2022-11-28T11:20:52.107Z,1.00
2022-11-28T11:23:24.216Z,1.00
2022-11-28T11:25:58.316Z,1.00
2022-11-28T11:28:42.059Z,1.00
2022-11-28T11:31:24.091Z,1.00
2022-11-28T11:33:56.897Z,1.00
2022-11-28T11:36:29.759Z,1.00
2022-11-28T11:39:18.544Z,1.00
2022-11-28T11:41:50.495Z,1.00
2022-11-28T11:44:34.327Z,1.00
2022-11-28T11:47:08.890Z,1.00
2022-11-28T11:49:40.175Z,1.00
2022-11-28T11:52:19.494Z,1.00
2022-11-28T11:55:06.082Z,1.00
2022-11-28T11:57:40.720Z,1.00
2022-11-28T12:00:18.487Z,3.00
2022-11-28T12:02:56.678Z,3.30
2022-11-28T12:05:46.403Z,4.90
2022-11-28T12:08:31.725Z,7.40
2022-11-28T12:11:13.576Z,8.60
2022-11-28T12:13:43.736Z,6.20
2022-11-28T12:16:31.822Z,7.00
2022-11-28T12:19:15.964Z,9.90
2022-11-28T12:21:58.695Z,10.60
2022-11-28T12:24:36.735Z,10.70
2022-11-28T12:27:17.143Z,11.00
2022-11-28T12:29:58.780Z,10.70
2022-11-28T12:32:44.012Z,11.60
2022-11-28T12:35:29.761Z,11.20
2022-11-28T12:38:11.903Z,11.90
2022-11-28T12:40:53.800Z,11.40
2022-11-28T12:43:36.509Z,12.10
2022-11-28T12:46:14.090Z,12.80
2022-11-28T12:48:53.889Z,11.40
2022-11-28T12:51:37.450Z,11.30
2022-11-28T12:54:25.097Z,10.70
2022-11-28T12:57:00.947Z,10.50
2022-11-28T12:59:37.791Z,9.10
2022-11-28T13:02:29.373Z,11.00
2022-11-28T13:05:22.500Z,11.50
2022-11-28T13:08:17.561Z,11.20
2022-11-28T13:10:53.077Z,12.20
2022-11-28T13:13:29.568Z,12.50
2022-11-28T13:16:10.660Z,12.00
2022-11-28T13:18:43.748Z,11.60
2022-11-28T13:21:24.847Z,12.90
2022-11-28T13:24:07.082Z,9.70
2022-11-28T13:26:58.955Z,11.00
2022-11-28T13:29:36.545Z,10.30
2022-11-28T13:32:15.947Z,11.90
2022-11-28T13:34:46.863Z,11.10
2022-11-28T13:40:20.624Z,11.10
2022-11-28T13:43:07.917Z,10.50
2022-11-28T13:45:40.833Z,10.30
2022-11-28T13:51:33.132Z,11.10
2022-11-28T13:54:48.908Z,11.70
2022-11-28T13:57:31.789Z,13.30
2022-11-28T14:00:09.963Z,14.60
2022-11-28T14:02:45.355Z,14.50
2022-11-28T14:05:28.321Z,14.50
2022-11-28T14:07:59.344Z,15.90
2022-11-28T14:10:49.198Z,16.70
2022-11-28T14:13:48.436Z,17.30
2022-11-28T14:16:32.754Z,18.10
2022-11-28T14:19:16.032Z,17.30
2022-11-28T14:21:59.922Z,18.00
2022-11-28T14:24:44.127Z,18.40
2022-11-28T14:27:23.512Z,18.50
2022-11-28T14:29:58.640Z,17.50
2022-11-28T14:32:36.201Z,18.20
2022-11-28T14:35:09.424Z,16.50
2022-11-28T14:37:52.905Z,18.10
2022-11-28T14:41:11.722Z,18.70
2022-11-28T14:43:45.971Z,19.50
2022-11-28T14:46:30.461Z,18.60
2022-11-28T14:49:20.541Z,19.00
2022-11-28T14:55:20.572Z,19.60
2022-11-28T14:57:59.555Z,19.10
2022-11-28T15:00:31.563Z,19.30
2022-11-28T15:03:25.602Z,19.90
2022-11-28T15:06:00.577Z,20.70
2022-11-28T15:08:56.515Z,21.00
2022-11-28T15:11:43.596Z,20.60
2022-11-28T15:14:21.411Z,21.40
2022-11-28T15:16:53.235Z,20.70
2022-11-28T15:19:33.527Z,20.50
2022-11-28T15:22:04.268Z,20.10
2022-11-28T15:24:36.161Z,19.90
2022-11-28T15:27:27.033Z,20.20
2022-11-28T15:29:58.327Z,21.30
2022-11-28T15:32:30.844Z,22.10
2022-11-28T15:35:12.570Z,22.50
2022-11-28T15:37:48.394Z,22.60
2022-11-28T15:40:22.780Z,23.40
2022-11-28T15:42:52.847Z,22.90
2022-11-28T15:45:27.845Z,23.60
2022-11-28T15:47:58.965Z,24.60
2022-11-28T15:50:33.942Z,25.40
2022-11-28T15:53:05.700Z,26.80
2022-11-28T15:55:36.731Z,27.60
2022-11-28T15:58:14.692Z,28.10
2022-11-28T16:00:47.800Z,28.40
2022-11-28T16:03:21.561Z,29.40
2022-11-28T16:05:56.111Z,30.90
2022-11-28T16:08:28.577Z,31.70
2022-11-28T16:10:59.224Z,32.20
2022-11-28T16:13:31.474Z,33.60
2022-11-28T16:16:04.210Z,34.00
2022-11-28T16:18:34.511Z,34.60
2022-11-28T16:21:07.221Z,35.40
2022-11-28T16:23:38.724Z,35.80
2022-11-28T16:26:10.875Z,35.10
2022-11-28T16:28:42.868Z,34.80
2022-11-28T16:31:21.024Z,34.60
2022-11-28T16:33:52.065Z,35.00
2022-11-28T16:36:27.060Z,35.80
2022-11-28T16:39:08.474Z,36.00
2022-11-28T16:41:38.465Z,36.60
2022-11-28T16:44:13.979Z,36.70
2022-11-28T16:46:51.358Z,36.70
2022-11-28T16:49:35.499Z,36.00
2022-11-28T16:52:45.625Z,37.00
2022-11-28T16:55:40.460Z,38.20
2022-11-28T16:58:17.097Z,38.30
2022-11-28T17:00:50.388Z,39.90
2022-11-28T17:03:51.332Z,39.90
2022-11-28T17:06:28.117Z,40.00
2022-11-28T17:09:00.552Z,41.70
2022-11-28T17:11:34.250Z,41.40
2022-11-28T17:14:07.452Z,41.90
2022-11-28T17:16:42.932Z,42.50
2022-11-28T17:19:12.936Z,43.40
2022-11-28T17:21:45.536Z,43.40
2022-11-28T17:24:21.436Z,43.80
2022-11-28T17:26:51.608Z,43.40
2022-11-28T17:29:22.192Z,44.00
2022-11-28T17:31:55.162Z,44.10
2022-11-28T17:34:26.768Z,43.90
2022-11-28T17:36:56.602Z,44.20
2022-11-28T17:39:30.243Z,44.20
2022-11-28T17:42:01.002Z,43.80
2022-11-28T17:44:32.819Z,44.30
2022-11-28T17:47:03.623Z,44.00
2022-11-28T17:49:33.743Z,43.70
2022-11-28T17:52:03.692Z,43.70
2022-11-28T17:54:36.019Z,44.20
2022-11-28T17:57:05.832Z,43.60
2022-11-28T17:59:37.650Z,43.40
2022-11-28T18:02:07.689Z,42.90
2022-11-28T18:04:37.615Z,43.10
2022-11-28T18:07:07.687Z,43.80
2022-11-28T18:09:43.117Z,43.90
2022-11-28T18:12:13.243Z,44.40
2022-11-28T18:14:43.219Z,45.30
2022-11-28T18:17:12.961Z,45.90
2022-11-28T18:19:43.175Z,47.20
2022-11-28T18:22:13.080Z,48.00
2022-11-28T18:24:45.463Z,48.30
2022-11-28T18:27:15.296Z,49.20
2022-11-28T18:29:45.398Z,50.00
2022-11-28T18:32:15.394Z,51.50
2022-11-28T18:34:45.134Z,51.40
2022-11-28T18:37:14.928Z,51.90
2022-11-28T18:39:47.356Z,52.00
2022-11-28T18:42:18.021Z,52.50
2022-11-28T18:44:47.947Z,52.90
2022-11-28T18:47:17.672Z,53.40
2022-11-28T18:49:47.491Z,53.50
2022-11-28T18:52:17.249Z,53.00
2022-11-28T18:54:49.684Z,52.70
2022-11-28T18:57:19.496Z,52.40
2022-11-28T18:59:54.770Z,52.80
2022-11-28T19:02:25.176Z,52.50
2022-11-28T19:04:54.983Z,52.00
2022-11-28T19:07:25.335Z,52.00
2022-11-28T19:09:57.749Z,52.40
2022-11-28T19:12:27.853Z,52.80
2022-11-28T19:15:02.052Z,52.80
2022-11-28T19:17:32.445Z,53.30
2022-11-28T19:20:02.217Z,53.40
2022-11-28T19:22:31.963Z,53.70
2022-11-28T19:25:04.391Z,54.00
2022-11-28T19:27:34.203Z,53.50
2022-11-28T19:30:03.965Z,53.70
2022-11-28T19:32:33.722Z,53.70
2022-11-28T19:35:03.576Z,54.10
2022-11-28T19:37:33.589Z,54.50
2022-11-28T19:40:06.455Z,54.70
2022-11-28T19:42:36.711Z,55.20
2022-11-28T19:45:07.603Z,55.30
2022-11-28T19:47:37.462Z,55.80
2022-11-28T19:50:09.659Z,55.80
2022-11-28T19:52:39.413Z,55.90
2022-11-28T19:55:12.531Z,55.90
2022-11-28T19:57:42.318Z,56.30
2022-11-28T20:00:13.703Z,55.90
2022-11-28T20:02:43.639Z,56.50
2022-11-28T20:05:13.432Z,56.10
2022-11-28T20:07:43.245Z,56.10
2022-11-28T20:10:15.959Z,56.10
2022-11-28T20:12:45.785Z,56.20
2022-11-28T20:15:18.311Z,56.00
2022-11-28T20:17:48.336Z,55.80
2022-11-28T20:20:18.572Z,55.70
2022-11-28T20:22:48.416Z,55.70
2022-11-28T20:25:21.242Z,55.90
2022-11-28T20:27:51.072Z,55.90
2022-11-28T20:30:21.173Z,56.00
2022-11-28T20:32:50.967Z,55.60
2022-11-28T20:35:20.770Z,56.00
2022-11-28T20:37:50.540Z,56.00
2022-11-28T20:40:22.925Z,56.00
2022-11-28T20:42:52.715Z,56.20
2022-11-28T20:45:22.619Z,56.30
2022-11-28T20:47:52.375Z,56.40
2022-11-28T20:50:22.256Z,56.30
2022-11-28T20:52:52.003Z,56.20
2022-11-28T20:55:24.831Z,56.80
2022-11-28T20:57:54.592Z,57.50
2022-11-28T21:00:26.749Z,56.90
2022-11-28T21:02:56.795Z,57.00
2022-11-28T21:05:26.573Z,57.10
2022-11-28T21:07:56.406Z,57.30
2022-11-28T21:10:28.870Z,57.30
2022-11-28T21:12:58.689Z,57.30
2022-11-28T21:15:28.504Z,57.40
2022-11-28T21:17:58.297Z,57.00
2022-11-28T21:20:28.063Z,57.10
2022-11-28T21:22:58.410Z,57.70
2022-11-28T21:25:30.786Z,57.50
2022-11-28T21:28:00.567Z,57.50
2022-11-28T21:30:30.352Z,57.50
2022-11-28T21:33:00.196Z,57.70
2022-11-28T21:35:29.923Z,57.60
2022-11-28T21:37:59.657Z,57.80
2022-11-28T21:40:32.128Z,57.80
2022-11-28T21:43:02.492Z,58.30
2022-11-28T21:45:32.416Z,58.40
2022-11-28T21:48:02.305Z,58.60
2022-11-28T21:50:32.115Z,58.80
2022-11-28T21:53:01.887Z,59.00
2022-11-28T21:55:35.052Z,59.60
2022-11-28T21:58:04.848Z,59.60
2022-11-28T22:00:52.591Z,59.90
2022-11-28T22:03:23.766Z,60.20
2022-11-28T22:05:54.353Z,60.20
2022-11-28T22:08:24.283Z,60.20
2022-11-28T22:11:00.825Z,60.60
2022-11-28T22:13:30.876Z,60.90
2022-11-28T22:16:00.887Z,60.90
2022-11-28T22:18:32.225Z,61.30
2022-11-28T22:21:22.401Z,61.20
2022-11-28T22:23:54.832Z,61.40
2022-11-28T22:26:27.369Z,61.50
2022-11-28T22:28:58.792Z,61.50
2022-11-28T22:31:28.690Z,61.70
2022-11-28T22:33:58.627Z,62.10
2022-11-28T22:36:28.397Z,62.40
2022-11-28T22:38:59.648Z,62.70
2022-11-28T22:41:32.023Z,63.10
2022-11-28T22:44:04.132Z,63.20
2022-11-28T22:46:34.570Z,63.10
2022-11-28T22:49:05.193Z,63.20
2022-11-28T22:51:35.031Z,63.20
2022-11-28T22:54:05.942Z,63.50
2022-11-28T22:56:38.334Z,63.50
2022-11-28T22:59:08.519Z,63.70
2022-11-28T23:01:38.280Z,63.80
2022-11-28T23:04:08.239Z,63.50
2022-11-28T23:06:38.921Z,63.50
2022-11-28T23:09:11.397Z,63.50
2022-11-28T23:11:44.129Z,63.90
2022-11-28T23:14:15.895Z,63.70
2022-11-28T23:16:46.931Z,63.70
2022-11-28T23:19:19.324Z,63.70
2022-11-28T23:21:51.087Z,63.80
2022-11-28T23:24:23.255Z,63.70
2022-11-28T23:26:56.132Z,63.70
2022-11-28T23:29:25.862Z,63.80
2022-11-28T23:31:55.703Z,63.90
2022-11-28T23:34:25.540Z,63.70
2022-11-28T23:36:55.346Z,63.90
2022-11-28T23:39:25.951Z,63.90
2022-11-28T23:41:58.941Z,63.80
2022-11-28T23:44:28.819Z,63.90
2022-11-28T23:46:58.838Z,63.90
2022-11-28T23:49:28.639Z,63.90
2022-11-28T23:51:58.799Z,63.90
2022-11-28T23:54:28.614Z,63.90
2022-11-28T23:57:00.949Z,63.90
2022-11-28T23:59:30.927Z,63.90
